createdAt,value
2019-05-16T00:01:05.676Z,44.40
2019-05-16T00:03:33.091Z,44.80
2019-05-16T00:06:00.443Z,45.20
2019-05-16T00:08:28.590Z,46.60
2019-05-16T00:10:58.134Z,45.10
2019-05-16T00:13:27.849Z,45.50
2019-05-16T00:15:55.381Z,44.70
2019-05-16T00:18:22.865Z,45.20
2019-05-16T00:20:50.962Z,45.40
2019-05-16T00:23:18.761Z,46.50
2019-05-16T00:25:47.798Z,47.80
2019-05-16T00:28:18.051Z,49.30
2019-05-16T00:30:48.505Z,50.30
2019-05-16T00:33:15.300Z,50.80
2019-05-16T00:35:43.072Z,51.50
2019-05-16T00:38:10.539Z,51.80
2019-05-16T00:40:38.309Z,52.40
2019-05-16T00:43:08.020Z,52.60
2019-05-16T00:45:38.280Z,53.30
2019-05-16T00:48:04.981Z,53.90
2019-05-16T00:50:32.640Z,54.40
2019-05-16T00:53:00.095Z,55.10
2019-05-16T00:55:28.440Z,55.00
2019-05-16T00:57:58.340Z,55.70
2019-05-16T01:00:48.772Z,56.20
2019-05-16T01:03:16.005Z,56.20
2019-05-16T01:05:43.805Z,55.70
2019-05-16T01:08:11.341Z,56.00
2019-05-16T01:10:39.101Z,56.00
2019-05-16T01:13:07.983Z,56.10
2019-05-16T01:15:38.007Z,56.10
2019-05-16T01:18:08.057Z,55.40
2019-05-16T01:20:35.566Z,55.70
2019-05-16T01:23:02.904Z,55.50
2019-05-16T01:25:30.907Z,55.20
2019-05-16T01:27:58.391Z,55.10
2019-05-16T01:30:25.728Z,54.60
2019-05-16T01:32:53.421Z,54.30
2019-05-16T01:35:20.972Z,55.60
2019-05-16T01:37:48.764Z,56.20
2019-05-16T01:40:18.634Z,55.50
2019-05-16T01:42:46.184Z,53.50
2019-05-16T01:45:13.694Z,53.00
2019-05-16T01:47:42.245Z,53.80
2019-05-16T01:50:10.652Z,54.10
2019-05-16T01:52:38.447Z,55.20
2019-05-16T01:55:08.291Z,54.20
2019-05-16T01:57:36.086Z,54.10
2019-05-16T02:00:04.436Z,55.00
2019-05-16T02:02:32.199Z,54.90
2019-05-16T02:04:59.660Z,55.20
2019-05-16T02:07:28.303Z,55.70
2019-05-16T02:09:58.244Z,55.90
2019-05-16T02:12:27.761Z,56.60
2019-05-16T02:14:55.361Z,56.40
2019-05-16T02:17:23.178Z,56.60
2019-05-16T02:19:50.756Z,55.80
2019-05-16T02:22:18.098Z,56.20
2019-05-16T02:24:48.650Z,56.10
2019-05-16T02:27:18.074Z,55.10
2019-05-16T02:29:47.275Z,55.60
2019-05-16T02:32:14.910Z,55.80
2019-05-16T02:34:42.507Z,57.10
2019-05-16T02:37:23.544Z,58.00
2019-05-16T02:39:41.870Z,57.30
2019-05-16T02:42:11.948Z,56.30
2019-05-16T02:44:41.184Z,56.60
2019-05-16T02:47:10.828Z,56.10
2019-05-16T02:49:41.632Z,56.10
2019-05-16T02:52:10.578Z,56.50
2019-05-16T02:54:40.935Z,57.60
2019-05-16T02:57:06.986Z,58.50
2019-05-16T02:59:53.973Z,58.50
2019-05-16T03:02:23.248Z,59.00
2019-05-16T03:04:51.679Z,58.70
2019-05-16T03:07:36.466Z,58.10
2019-05-16T03:09:51.537Z,58.00
2019-05-16T03:12:41.312Z,57.80
2019-05-16T03:15:11.118Z,59.00
2019-05-16T03:17:42.776Z,59.00
2019-05-16T03:20:31.913Z,58.60
2019-05-16T03:23:02.303Z,59.30
2019-05-16T03:25:31.055Z,59.20
2019-05-16T03:28:01.919Z,59.40
2019-05-16T03:30:35.080Z,59.00
2019-05-16T03:33:05.023Z,58.20
2019-05-16T03:35:33.950Z,58.40
2019-05-16T03:38:04.845Z,58.30
2019-05-16T03:40:32.514Z,59.90
2019-05-16T03:43:01.404Z,60.00
2019-05-16T03:45:31.947Z,59.50
2019-05-16T03:48:02.757Z,59.60
2019-05-16T03:50:30.636Z,58.70
2019-05-16T03:53:01.270Z,59.50
2019-05-16T03:55:28.174Z,60.30
2019-05-16T03:57:55.966Z,59.20
2019-05-16T04:00:51.995Z,59.00
2019-05-16T04:03:21.343Z,60.20
2019-05-16T04:05:52.050Z,60.20
2019-05-16T04:08:23.328Z,61.20
2019-05-16T04:10:46.976Z,60.00
2019-05-16T04:13:14.480Z,60.50
2019-05-16T04:16:01.819Z,60.70
2019-05-16T04:18:31.809Z,60.70
2019-05-16T04:21:00.993Z,61.50
2019-05-16T04:23:31.394Z,61.10
2019-05-16T04:26:00.716Z,62.00
2019-05-16T04:28:31.745Z,60.40
2019-05-16T04:31:01.655Z,62.20
2019-05-16T04:33:30.781Z,61.90
2019-05-16T04:35:57.697Z,62.20
2019-05-16T04:38:40.778Z,62.60
2019-05-16T04:40:55.624Z,61.60
2019-05-16T04:43:23.881Z,62.20
2019-05-16T04:45:52.652Z,62.80
2019-05-16T04:48:22.279Z,63.10
2019-05-16T04:50:51.598Z,63.00
2019-05-16T04:53:20.736Z,62.50
2019-05-16T04:55:51.589Z,63.40
2019-05-16T04:58:23.438Z,63.00
2019-05-16T05:00:51.682Z,63.20
2019-05-16T05:03:20.738Z,63.20
2019-05-16T05:05:50.850Z,63.10
2019-05-16T05:08:17.101Z,62.70
2019-05-16T05:10:44.537Z,63.00
2019-05-16T05:13:11.995Z,62.60
2019-05-16T05:15:40.173Z,63.30
2019-05-16T05:18:10.176Z,65.70
2019-05-16T05:20:37.679Z,64.70
2019-05-16T05:23:05.434Z,63.60
2019-05-16T05:25:32.994Z,65.00
2019-05-16T05:28:00.648Z,66.00
2019-05-16T05:30:30.319Z,65.40
2019-05-16T05:32:57.907Z,65.40
2019-05-16T05:35:25.290Z,65.50
2019-05-16T05:37:52.787Z,65.40
2019-05-16T05:40:20.666Z,64.90
2019-05-16T05:42:50.490Z,64.90
2019-05-16T05:45:19.968Z,65.90
2019-05-16T05:47:47.090Z,65.90
2019-05-16T05:50:15.023Z,66.00
2019-05-16T05:52:46.059Z,66.90
2019-05-16T05:55:12.706Z,67.80
2019-05-16T05:57:40.521Z,66.70
2019-05-16T06:00:09.909Z,67.20
2019-05-16T06:02:39.984Z,67.10
2019-05-16T06:05:06.913Z,67.10
2019-05-16T06:07:34.265Z,66.60
2019-05-16T06:10:01.779Z,66.90
2019-05-16T06:12:30.291Z,67.00
2019-05-16T06:15:05.889Z,67.50
2019-05-16T06:17:30.714Z,67.70
2019-05-16T06:20:00.143Z,66.50
2019-05-16T06:22:29.645Z,65.80
2019-05-16T06:24:56.677Z,65.10
2019-05-16T06:27:24.347Z,66.00
2019-05-16T06:29:52.870Z,66.30
2019-05-16T06:32:20.492Z,66.00
2019-05-16T06:34:50.562Z,66.00
2019-05-16T06:37:17.584Z,67.70
2019-05-16T06:39:45.654Z,69.60
2019-05-16T06:42:13.732Z,68.90
2019-05-16T06:44:41.182Z,67.10
2019-05-16T06:47:16.910Z,66.80
2019-05-16T06:49:40.179Z,66.50
2019-05-16T06:52:10.289Z,67.50
2019-05-16T06:54:37.454Z,67.10
2019-05-16T06:57:04.783Z,68.10
2019-05-16T06:59:32.382Z,67.40
2019-05-16T07:02:00.397Z,67.80
2019-05-16T07:04:30.400Z,69.60
2019-05-16T07:07:00.055Z,68.60
2019-05-16T07:09:27.540Z,67.80
2019-05-16T07:11:55.302Z,67.10
2019-05-16T07:14:23.433Z,67.90
2019-05-16T07:16:51.324Z,66.20
2019-05-16T07:19:20.801Z,67.10
2019-05-16T07:21:50.746Z,66.60
2019-05-16T07:24:19.754Z,67.00
2019-05-16T07:26:49.833Z,64.70
2019-05-16T07:29:17.317Z,66.40
2019-05-16T07:31:44.836Z,67.60
2019-05-16T07:34:14.527Z,65.20
2019-05-16T07:36:42.318Z,65.30
2019-05-16T07:39:10.818Z,65.70
2019-05-16T07:41:40.174Z,66.60
2019-05-16T07:44:10.560Z,63.80
2019-05-16T07:46:43.871Z,65.50
2019-05-16T07:49:07.821Z,64.80
2019-05-16T07:51:35.566Z,65.50
2019-05-16T07:54:03.011Z,63.00
2019-05-16T07:56:31.188Z,63.80
2019-05-16T07:59:00.908Z,62.30
2019-05-16T08:01:30.639Z,63.40
2019-05-16T08:04:00.009Z,62.80
2019-05-16T08:06:27.300Z,66.00
2019-05-16T08:08:54.963Z,62.90
2019-05-16T08:11:23.729Z,60.40
2019-05-16T08:13:51.514Z,60.30
2019-05-16T08:16:20.813Z,59.50
2019-05-16T08:18:50.659Z,61.00
2019-05-16T08:21:20.141Z,59.40
2019-05-16T08:23:46.942Z,59.90
2019-05-16T08:26:15.332Z,59.60
2019-05-16T08:28:42.735Z,61.10
2019-05-16T08:31:11.792Z,62.20
2019-05-16T08:33:41.548Z,58.10
2019-05-16T08:36:11.813Z,60.00
2019-05-16T08:38:42.962Z,57.60
2019-05-16T08:41:12.857Z,57.70
2019-05-16T08:43:37.196Z,59.50
2019-05-16T08:46:04.793Z,58.20
2019-05-16T08:48:32.510Z,58.50
2019-05-16T08:51:02.879Z,57.20
2019-05-16T08:53:31.600Z,57.70
2019-05-16T08:56:02.301Z,58.30
2019-05-16T08:58:32.696Z,59.10
2019-05-16T09:01:01.923Z,58.60
2019-05-16T09:03:27.816Z,57.90
2019-05-16T09:05:55.544Z,60.30
2019-05-16T09:08:23.325Z,58.50
2019-05-16T09:13:21.018Z,56.90
2019-05-16T09:15:48.549Z,56.90
2019-05-16T09:18:17.761Z,57.10
2019-05-16T09:18:36.427Z,56.80
2019-05-16T09:20:45.615Z,56.80
2019-05-16T09:23:13.380Z,56.10
2019-05-16T09:25:40.737Z,54.90
2019-05-16T09:28:08.180Z,54.40
2019-05-16T09:30:37.055Z,55.30
2019-05-16T09:33:07.054Z,57.10
2019-05-16T09:35:36.848Z,55.40
2019-05-16T09:38:03.606Z,55.70
2019-05-16T09:40:31.102Z,58.60
2019-05-16T09:42:58.408Z,53.30
2019-05-16T09:45:27.227Z,55.60
2019-05-16T09:47:57.358Z,57.20
2019-05-16T09:50:26.637Z,54.10
2019-05-16T09:52:56.436Z,54.70
2019-05-16T09:55:26.709Z,55.70
2019-05-16T09:57:57.454Z,56.90
2019-05-16T10:00:26.874Z,54.80
2019-05-16T10:02:54.680Z,55.70
2019-05-16T10:05:22.800Z,52.70
2019-05-16T10:07:50.749Z,54.20
2019-05-16T10:10:18.487Z,56.20
2019-05-16T10:12:45.869Z,54.40
2019-05-16T10:15:14.088Z,53.90
2019-05-16T10:17:41.488Z,54.70
2019-05-16T10:20:10.425Z,53.10
2019-05-16T10:22:37.775Z,52.10
2019-05-16T10:25:06.255Z,52.10
2019-05-16T10:27:33.608Z,51.80
2019-05-16T10:30:01.813Z,54.30
2019-05-16T10:32:30.806Z,53.90
2019-05-16T10:34:58.461Z,55.10
2019-05-16T10:37:26.890Z,52.70
2019-05-16T10:39:56.670Z,52.50
2019-05-16T10:42:29.053Z,56.80
2019-05-16T10:44:57.476Z,53.70
2019-05-16T10:47:23.916Z,53.60
2019-05-16T10:49:51.282Z,53.80
2019-05-16T10:52:19.025Z,53.10
2019-05-16T10:54:58.086Z,52.50
2019-05-16T10:57:16.177Z,53.70
2019-05-16T11:00:02.073Z,54.30
2019-05-16T11:02:13.853Z,53.60
2019-05-16T11:04:56.181Z,52.80
2019-05-16T11:07:10.737Z,52.00
2019-05-16T11:09:39.466Z,50.20
2019-05-16T11:12:07.189Z,52.40
2019-05-16T11:14:36.989Z,51.60
2019-05-16T11:17:07.273Z,52.80
2019-05-16T11:19:34.076Z,52.80
2019-05-16T11:22:01.594Z,51.60
2019-05-16T11:24:29.385Z,54.20
2019-05-16T11:26:57.036Z,51.40
2019-05-16T11:29:24.903Z,49.30
2019-05-16T11:31:52.368Z,52.60
2019-05-16T11:34:20.079Z,53.50
2019-05-16T11:36:48.413Z,50.50
2019-05-16T11:39:17.373Z,52.00
2019-05-16T11:41:47.352Z,49.80
2019-05-16T11:44:14.298Z,50.50
2019-05-16T11:46:42.205Z,50.70
2019-05-16T11:49:09.587Z,51.80
2019-05-16T11:51:38.353Z,51.40
2019-05-16T11:54:06.994Z,52.80
2019-05-16T11:56:36.900Z,53.50
2019-05-16T11:59:04.533Z,50.10
2019-05-16T12:01:32.041Z,50.10
2019-05-16T12:03:59.851Z,49.50
2019-05-16T12:06:27.547Z,50.90
2019-05-16T12:08:55.354Z,50.10
2019-05-16T12:11:22.742Z,51.30
2019-05-16T12:13:50.852Z,51.00
2019-05-16T12:16:18.894Z,51.70
2019-05-16T12:18:46.573Z,50.80
2019-05-16T12:21:17.252Z,50.40
2019-05-16T12:23:47.119Z,51.40
2019-05-16T12:26:13.728Z,52.40
2019-05-16T12:28:41.117Z,47.60
2019-05-16T12:31:08.811Z,49.60
2019-05-16T12:33:37.403Z,51.40
2019-05-16T12:36:07.296Z,50.00
2019-05-16T12:38:54.306Z,51.00
2019-05-16T12:41:22.065Z,50.00
2019-05-16T12:43:53.448Z,47.20
2019-05-16T12:46:18.983Z,48.80
2019-05-16T12:48:47.415Z,51.70
2019-05-16T12:51:17.131Z,46.20
2019-05-16T12:53:44.439Z,46.00
2019-05-16T12:56:12.023Z,47.90
2019-05-16T12:58:42.262Z,47.10
2019-05-16T13:01:08.965Z,46.30
2019-05-16T13:03:37.826Z,46.10
2019-05-16T13:06:05.879Z,45.50
2019-05-16T13:08:33.284Z,45.30
2019-05-16T13:11:00.748Z,47.40
2019-05-16T13:13:28.148Z,46.80
2019-05-16T13:15:55.660Z,46.60
2019-05-16T13:18:23.129Z,48.60
2019-05-16T13:20:50.691Z,44.30
2019-05-16T13:23:18.548Z,45.80
2019-05-16T13:25:48.216Z,47.30
2019-05-16T13:28:15.600Z,45.30
2019-05-16T13:33:18.760Z,49.00
2019-05-16T13:35:47.192Z,47.50
2019-05-16T13:38:17.327Z,50.30
2019-05-16T13:40:44.895Z,47.70
2019-05-16T13:43:12.380Z,45.40
2019-05-16T13:45:39.754Z,46.10
2019-05-16T13:48:08.085Z,45.40
2019-05-16T13:50:39.612Z,48.10
2019-05-16T13:53:07.774Z,46.20
2019-05-16T13:55:37.584Z,46.10
2019-05-16T13:58:04.496Z,46.00
2019-05-16T14:00:32.364Z,47.10
2019-05-16T14:02:59.829Z,48.40
2019-05-16T14:05:27.758Z,46.70
2019-05-16T14:07:57.233Z,47.70
2019-05-16T14:10:29.352Z,46.80
2019-05-16T14:12:57.574Z,46.50
2019-05-16T14:15:26.927Z,48.60
2019-05-16T14:17:56.673Z,47.50
2019-05-16T14:20:23.434Z,46.70
2019-05-16T14:22:50.903Z,45.90
2019-05-16T14:25:18.588Z,46.60
2019-05-16T14:27:47.583Z,47.80
2019-05-16T14:30:17.704Z,46.70
2019-05-16T14:32:50.384Z,47.00
2019-05-16T14:35:14.670Z,49.00
2019-05-16T14:37:42.020Z,49.20
2019-05-16T14:40:10.058Z,47.80
2019-05-16T14:42:38.906Z,48.10
2019-05-16T14:45:12.020Z,49.10
2019-05-16T14:47:38.254Z,48.10
2019-05-16T14:50:11.614Z,46.50
2019-05-16T14:52:36.627Z,46.30
2019-05-16T14:55:07.010Z,49.30
2019-05-16T14:57:34.553Z,47.10
2019-05-16T15:00:07.191Z,48.00
2019-05-16T15:02:34.398Z,47.10
2019-05-16T15:05:01.794Z,46.30
2019-05-16T15:07:29.175Z,45.20
2019-05-16T15:09:58.108Z,46.20
2019-05-16T15:12:26.859Z,48.20
2019-05-16T15:14:57.135Z,48.00
2019-05-16T15:17:27.413Z,47.10
2019-05-16T15:19:57.154Z,47.70
2019-05-16T15:22:27.153Z,48.10
2019-05-16T15:24:59.054Z,48.10
2019-05-16T15:27:23.772Z,47.60
2019-05-16T15:29:51.262Z,46.30
2019-05-16T15:32:19.101Z,46.80
2019-05-16T15:34:47.607Z,44.70
2019-05-16T15:37:17.150Z,46.50
2019-05-16T15:39:47.491Z,47.80
2019-05-16T15:42:18.046Z,46.50
2019-05-16T15:44:44.516Z,45.90
2019-05-16T15:47:12.300Z,47.20
2019-05-16T15:49:40.563Z,48.30
2019-05-16T15:52:08.623Z,49.30
2019-05-16T15:54:37.628Z,48.10
2019-05-16T15:57:06.769Z,48.10
2019-05-16T15:59:34.358Z,45.00
2019-05-16T16:02:02.108Z,46.10
2019-05-16T16:04:29.624Z,45.20
2019-05-16T16:06:57.300Z,47.50
2019-05-16T16:09:26.828Z,47.70
2019-05-16T16:11:56.489Z,45.80
2019-05-16T16:14:23.634Z,46.80
2019-05-16T16:16:51.132Z,46.80
2019-05-16T16:19:18.663Z,48.80
2019-05-16T16:21:47.272Z,49.60
2019-05-16T16:24:18.606Z,48.90
2019-05-16T16:26:44.279Z,50.10
2019-05-16T16:29:11.662Z,49.40
2019-05-16T16:31:39.408Z,48.40
2019-05-16T16:34:07.544Z,48.40
2019-05-16T16:36:36.734Z,48.30
2019-05-16T16:39:07.434Z,47.60
2019-05-16T16:41:36.933Z,47.80
2019-05-16T16:44:04.305Z,47.90
2019-05-16T16:46:32.438Z,47.10
2019-05-16T16:48:59.958Z,47.70
2019-05-16T16:51:27.832Z,48.00
2019-05-16T16:53:57.007Z,47.40
2019-05-16T16:56:27.271Z,48.80
2019-05-16T16:58:54.691Z,48.40
2019-05-16T17:01:22.184Z,49.00
2019-05-16T17:03:50.816Z,48.70
2019-05-16T17:06:18.333Z,49.80
2019-05-16T17:08:47.411Z,50.60
2019-05-16T17:11:15.440Z,52.20
2019-05-16T17:13:44.459Z,50.90
2019-05-16T17:16:23.083Z,51.00
2019-05-16T17:18:41.693Z,50.10
2019-05-16T17:21:09.034Z,50.50
2019-05-16T17:23:37.087Z,51.60
2019-05-16T17:26:07.081Z,51.30
2019-05-16T17:28:34.273Z,50.40
2019-05-16T17:31:01.632Z,49.90
2019-05-16T17:33:30.176Z,49.50
2019-05-16T17:35:57.984Z,49.50
2019-05-16T17:38:26.716Z,49.20
2019-05-16T17:40:56.807Z,49.90
2019-05-16T17:43:23.974Z,51.00
2019-05-16T17:45:51.285Z,50.50
2019-05-16T17:48:18.912Z,49.70
2019-05-16T17:50:46.849Z,50.80
2019-05-16T17:53:17.088Z,51.60
2019-05-16T17:55:47.015Z,51.40
2019-05-16T17:58:16.269Z,50.60
2019-05-16T18:00:43.341Z,49.30
2019-05-16T18:03:11.151Z,47.90
2019-05-16T18:05:38.802Z,48.90
2019-05-16T18:08:07.345Z,48.10
2019-05-16T18:10:36.507Z,48.10
2019-05-16T18:13:04.519Z,49.60
2019-05-16T18:15:31.839Z,50.00
2019-05-16T18:17:59.218Z,49.50
2019-05-16T18:20:26.890Z,49.90
2019-05-16T18:22:56.823Z,48.80
2019-05-16T18:25:23.802Z,49.20
2019-05-16T18:27:51.837Z,48.90
2019-05-16T18:30:22.887Z,48.30
2019-05-16T18:32:50.940Z,48.90
2019-05-16T18:35:18.432Z,49.50
2019-05-16T18:37:46.481Z,49.20
2019-05-16T18:40:16.586Z,49.90
2019-05-16T18:42:47.566Z,50.10
2019-05-16T18:45:16.488Z,49.10
2019-05-16T18:47:46.815Z,49.60
2019-05-16T18:50:14.552Z,48.80
2019-05-16T18:52:41.958Z,48.90
2019-05-16T18:55:09.525Z,49.90
2019-05-16T18:57:37.658Z,49.00
2019-05-16T19:00:06.968Z,48.30
2019-05-16T19:02:36.915Z,48.30
2019-05-16T19:05:07.018Z,47.60
2019-05-16T19:07:36.748Z,47.10
2019-05-16T19:10:06.668Z,47.70
2019-05-16T19:12:34.366Z,48.10
2019-05-16T19:15:02.512Z,48.30
2019-05-16T19:17:30.091Z,48.50
2019-05-16T19:19:58.708Z,47.40
2019-05-16T19:22:26.615Z,48.10
2019-05-16T19:24:54.192Z,48.20
2019-05-16T19:27:23.084Z,48.30
2019-05-16T19:29:51.264Z,48.70
2019-05-16T19:32:18.750Z,49.00
2019-05-16T19:34:49.170Z,49.00
2019-05-16T19:37:16.200Z,48.40
2019-05-16T19:39:46.188Z,48.60
2019-05-16T19:42:13.568Z,49.30
2019-05-16T19:44:41.640Z,48.90
2019-05-16T19:47:09.434Z,49.70
2019-05-16T19:49:37.076Z,50.00
2019-05-16T19:52:07.047Z,50.10
2019-05-16T19:54:36.344Z,50.60
2019-05-16T19:57:03.776Z,50.50
2019-05-16T19:59:31.292Z,50.20
2019-05-16T20:01:58.908Z,49.40
2019-05-16T20:04:27.413Z,49.30
2019-05-16T20:06:56.682Z,48.90
2019-05-16T20:09:26.722Z,49.10
2019-05-16T20:11:56.782Z,49.10
2019-05-16T20:14:23.837Z,49.00
2019-05-16T20:16:51.671Z,48.90
2019-05-16T20:19:19.336Z,49.00
2019-05-16T20:21:47.542Z,49.50
2019-05-16T20:24:16.696Z,49.50
2019-05-16T20:26:46.281Z,49.10
2019-05-16T20:29:14.100Z,49.70
2019-05-16T20:31:41.660Z,49.70
2019-05-16T20:34:09.509Z,49.60
2019-05-16T20:36:37.293Z,49.40
2019-05-16T20:39:08.186Z,49.40
2019-05-16T20:41:36.817Z,49.30
2019-05-16T20:44:06.616Z,49.70
2019-05-16T20:46:34.994Z,49.60
2019-05-16T20:49:02.962Z,49.30
2019-05-16T20:51:30.856Z,49.90
2019-05-16T20:53:58.792Z,50.30
2019-05-16T20:56:26.610Z,50.10
2019-05-16T20:58:54.624Z,50.70
2019-05-16T21:01:22.078Z,50.80
2019-05-16T21:03:49.507Z,51.10
2019-05-16T21:06:17.162Z,50.50
2019-05-16T21:08:46.261Z,50.70
2019-05-16T21:11:17.024Z,50.20
2019-05-16T21:13:46.886Z,50.70
2019-05-16T21:16:13.836Z,50.80
2019-05-16T21:18:41.320Z,50.00
2019-05-16T21:21:08.652Z,50.80
2019-05-16T21:23:36.641Z,51.00
2019-05-16T21:26:04.170Z,51.20
2019-05-16T21:28:31.729Z,51.00
2019-05-16T21:30:59.362Z,51.80
2019-05-16T21:33:27.424Z,52.00
2019-05-16T21:35:56.505Z,51.20
2019-05-16T21:38:24.208Z,51.30
2019-05-16T21:40:51.792Z,52.90
2019-05-16T21:43:20.336Z,53.70
2019-05-16T21:45:48.189Z,54.20
2019-05-16T21:48:16.315Z,54.20
2019-05-16T21:50:46.267Z,55.10
2019-05-16T21:53:13.906Z,56.20
2019-05-16T21:55:41.653Z,55.90
2019-05-16T21:58:09.779Z,55.70
2019-05-16T22:00:43.235Z,55.50
2019-05-16T22:03:13.085Z,56.70
2019-05-16T22:05:40.613Z,56.20
2019-05-16T22:08:08.200Z,56.30
2019-05-16T22:10:37.299Z,56.80
2019-05-16T22:13:07.746Z,57.80
2019-05-16T22:15:36.801Z,56.50
2019-05-16T22:18:06.977Z,57.20
2019-05-16T22:20:34.052Z,57.10
2019-05-16T22:23:01.738Z,56.80
2019-05-16T22:25:29.550Z,57.70
2019-05-16T22:27:57.581Z,57.20
2019-05-16T22:30:27.211Z,57.60
2019-05-16T22:32:55.257Z,58.70
2019-05-16T22:35:23.027Z,59.50
2019-05-16T22:37:55.489Z,59.30
2019-05-16T22:40:20.042Z,56.60
2019-05-16T22:42:47.837Z,54.70
2019-05-16T22:45:18.310Z,53.90
2019-05-16T22:47:46.953Z,52.90
2019-05-16T22:50:17.566Z,52.50
2019-05-16T22:52:45.568Z,52.90
2019-05-16T22:55:13.443Z,53.10
2019-05-16T22:57:40.798Z,53.00
2019-05-16T23:00:11.100Z,53.00
2019-05-16T23:02:40.643Z,52.00
2019-05-16T23:05:08.178Z,52.20
2019-05-16T23:07:36.709Z,52.80
2019-05-16T23:10:06.965Z,53.70
2019-05-16T23:12:33.936Z,54.20
2019-05-16T23:15:01.400Z,55.20
2019-05-16T23:17:28.896Z,54.70
2019-05-16T23:19:56.882Z,55.50
2019-05-16T23:22:24.772Z,55.70
2019-05-16T23:24:52.271Z,55.30
2019-05-16T23:27:20.005Z,54.90
2019-05-16T23:29:47.540Z,55.00
2019-05-16T23:32:15.428Z,54.40
2019-05-16T23:34:43.112Z,54.00
2019-05-16T23:37:10.747Z,54.20
2019-05-16T23:39:38.209Z,54.50
2019-05-16T23:42:06.359Z,54.60
2019-05-16T23:44:36.688Z,55.10
2019-05-16T23:47:06.881Z,55.00
2019-05-16T23:49:36.519Z,55.00
2019-05-16T23:52:03.996Z,56.30
2019-05-16T23:54:31.641Z,57.30
2019-05-16T23:56:59.136Z,58.80
2019-05-16T23:59:27.714Z,60.00
